createdAt,value
2022-11-28T00:00:19.831Z,93.73
2022-11-28T00:01:19.808Z,93.31
2022-11-28T00:02:19.957Z,93.83
2022-11-28T00:03:19.860Z,93.21
2022-11-28T00:04:19.770Z,93.62
2022-11-28T00:05:19.761Z,94.45
2022-11-28T00:06:26.329Z,93.83
2022-11-28T00:07:19.749Z,94.18
2022-11-28T00:08:19.715Z,94.38
2022-11-28T00:09:19.724Z,94.80
2022-11-28T00:10:19.734Z,94.80
2022-11-28T00:11:19.694Z,95.10
2022-11-28T00:12:19.706Z,95.31
2022-11-28T00:13:19.680Z,95.52
2022-11-28T00:14:19.684Z,95.10
2022-11-28T00:15:19.655Z,94.59
2022-11-28T00:16:19.688Z,94.90
2022-11-28T00:17:19.627Z,95.42
2022-11-28T00:18:19.620Z,95.31
2022-11-28T00:19:19.613Z,95.10
2022-11-28T00:20:19.587Z,94.80
2022-11-28T00:21:19.592Z,94.80
2022-11-28T00:22:19.591Z,95.21
2022-11-28T00:23:19.560Z,95.31
2022-11-28T00:24:19.556Z,95.10
2022-11-28T00:25:19.538Z,94.59
2022-11-28T00:26:19.533Z,94.28
2022-11-28T00:27:19.523Z,94.08
2022-11-28T00:28:19.514Z,94.28
2022-11-28T00:29:19.497Z,93.98
2022-11-28T00:30:19.520Z,94.59
2022-11-28T00:31:19.505Z,94.08
2022-11-28T00:32:19.489Z,93.66
2022-11-28T00:33:19.449Z,93.87
2022-11-28T00:34:19.456Z,94.08
2022-11-28T00:35:19.426Z,94.28
2022-11-28T00:36:19.421Z,94.38
2022-11-28T00:37:19.453Z,94.70
2022-11-28T00:38:19.393Z,95.10
2022-11-28T00:39:19.381Z,94.70
2022-11-28T00:40:19.386Z,94.80
2022-11-28T00:41:19.368Z,95.10
2022-11-28T00:42:19.351Z,95.52
2022-11-28T00:43:19.347Z,95.52
2022-11-28T00:44:19.335Z,95.73
2022-11-28T00:45:19.337Z,94.90
2022-11-28T00:46:19.350Z,95.00
2022-11-28T00:47:19.302Z,95.21
2022-11-28T00:48:19.288Z,95.73
2022-11-28T00:49:19.289Z,95.73
2022-11-28T00:50:19.260Z,95.52
2022-11-28T00:51:19.264Z,95.21
2022-11-28T00:52:19.251Z,95.62
2022-11-28T00:53:19.214Z,95.83
2022-11-28T00:54:19.223Z,95.73
2022-11-28T00:55:19.203Z,95.83
2022-11-28T00:56:19.181Z,95.42
2022-11-28T00:57:19.203Z,95.31
2022-11-28T00:58:19.150Z,95.21
2022-11-28T00:59:19.155Z,94.80
2022-11-28T01:00:19.132Z,94.80
2022-11-28T01:01:19.182Z,94.70
2022-11-28T01:02:19.148Z,94.90
2022-11-28T01:03:19.120Z,95.21
2022-11-28T01:04:19.126Z,95.42
2022-11-28T01:05:19.090Z,95.52
2022-11-28T01:06:19.083Z,95.83
2022-11-28T01:07:19.093Z,96.14
2022-11-28T01:08:19.126Z,96.24
2022-11-28T01:09:19.058Z,96.14
2022-11-28T01:10:19.036Z,96.49
2022-11-28T01:11:19.007Z,96.49
2022-11-28T01:12:19.003Z,96.39
2022-11-28T01:13:19.002Z,96.49
2022-11-28T01:14:18.997Z,96.70
2022-11-28T01:15:18.979Z,97.01
2022-11-28T01:16:19.071Z,97.11
2022-11-28T01:17:18.972Z,97.21
2022-11-28T01:18:18.946Z,96.80
2022-11-28T01:19:18.951Z,97.11
2022-11-28T01:20:18.939Z,97.31
2022-11-28T01:21:18.910Z,97.63
2022-11-28T01:22:18.881Z,97.63
2022-11-28T01:23:18.917Z,97.63
2022-11-28T01:24:18.908Z,97.31
2022-11-28T01:25:18.893Z,97.21
2022-11-28T01:26:18.874Z,97.11
2022-11-28T01:27:18.835Z,97.11
2022-11-28T01:28:18.830Z,96.91
2022-11-28T01:29:18.832Z,96.91
2022-11-28T01:30:18.811Z,97.21
2022-11-28T01:31:18.869Z,97.31
2022-11-28T01:32:18.776Z,97.21
2022-11-28T01:33:18.777Z,97.42
2022-11-28T01:34:18.776Z,97.31
2022-11-28T01:35:18.765Z,97.52
2022-11-28T01:36:18.736Z,97.11
2022-11-28T01:37:18.718Z,97.01
2022-11-28T01:38:18.791Z,96.59
2022-11-28T01:39:18.717Z,96.55
2022-11-28T01:40:18.713Z,96.55
2022-11-28T01:41:18.708Z,96.66
2022-11-28T01:42:18.708Z,96.14
2022-11-28T01:43:18.668Z,96.45
2022-11-28T01:44:18.681Z,96.34
2022-11-28T01:45:18.625Z,96.66
2022-11-28T01:46:18.669Z,96.75
2022-11-28T01:47:18.630Z,96.66
2022-11-28T01:48:18.600Z,96.66
2022-11-28T01:49:18.611Z,97.06
2022-11-28T01:50:18.595Z,97.38
2022-11-28T01:51:18.558Z,97.52
2022-11-28T01:52:18.572Z,97.94
2022-11-28T01:53:18.546Z,97.94
2022-11-28T01:54:18.534Z,98.14
2022-11-28T01:55:18.536Z,98.03
2022-11-28T01:56:18.542Z,98.14
2022-11-28T01:57:18.501Z,98.14
2022-11-28T01:58:18.536Z,98.24
2022-11-28T01:59:18.515Z,98.55
2022-11-28T02:00:18.497Z,98.55
2022-11-28T02:01:18.560Z,98.55
2022-11-28T02:02:18.491Z,98.76
2022-11-28T02:03:18.425Z,98.97
2022-11-28T02:04:18.433Z,99.27
2022-11-28T02:05:18.401Z,99.43
2022-11-28T02:06:18.415Z,99.43
2022-11-28T02:07:18.483Z,99.32
2022-11-28T02:08:18.387Z,99.43
2022-11-28T02:09:18.463Z,99.52
2022-11-28T02:10:18.366Z,99.63
2022-11-28T02:11:18.354Z,99.84
2022-11-28T02:12:18.326Z,99.84
2022-11-28T02:13:18.331Z,99.84
2022-11-28T02:14:18.300Z,99.94
2022-11-28T02:15:18.327Z,99.99
2022-11-28T02:16:18.379Z,99.99
2022-11-28T02:17:18.296Z,99.99
2022-11-28T02:18:18.262Z,99.99
2022-11-28T02:19:18.255Z,99.99
2022-11-28T02:20:18.277Z,99.99
2022-11-28T02:21:18.229Z,99.99
2022-11-28T02:22:18.212Z,99.94
2022-11-28T02:23:18.236Z,99.94
2022-11-28T02:24:18.221Z,99.84
2022-11-28T02:25:18.184Z,99.94
2022-11-28T02:26:18.212Z,99.84
2022-11-28T02:27:18.172Z,99.84
2022-11-28T02:28:18.169Z,99.84
2022-11-28T02:29:18.159Z,99.84
2022-11-28T02:30:18.138Z,99.43
2022-11-28T02:31:18.180Z,99.43
2022-11-28T02:32:18.105Z,99.11
2022-11-28T02:33:18.096Z,98.91
2022-11-28T02:34:18.100Z,99.01
2022-11-28T02:35:18.094Z,98.60
2022-11-28T02:36:18.074Z,98.50
2022-11-28T02:37:18.073Z,98.50
2022-11-28T02:38:18.039Z,98.50
2022-11-28T02:39:18.040Z,98.50
2022-11-28T02:40:18.084Z,98.60
2022-11-28T02:41:18.021Z,98.60
2022-11-28T02:42:18.022Z,98.60
2022-11-28T02:43:17.975Z,98.39
2022-11-28T02:44:17.993Z,98.50
2022-11-28T02:45:17.959Z,98.50
2022-11-28T02:46:18.006Z,98.29
2022-11-28T02:47:17.938Z,98.19
2022-11-28T02:48:17.947Z,98.39
2022-11-28T02:49:17.922Z,98.29
2022-11-28T02:50:17.918Z,98.29
2022-11-28T02:51:17.938Z,97.98
2022-11-28T02:52:17.905Z,97.67
2022-11-28T02:53:17.881Z,97.47
2022-11-28T02:54:17.888Z,97.26
2022-11-28T02:55:17.845Z,97.16
2022-11-28T02:56:17.855Z,96.95
2022-11-28T02:57:17.856Z,96.95
2022-11-28T02:58:17.857Z,97.16
2022-11-28T02:59:17.804Z,97.05
2022-11-28T03:00:17.985Z,97.05
2022-11-28T03:01:17.837Z,97.05
2022-11-28T03:02:17.873Z,97.16
2022-11-28T03:03:17.781Z,97.05
2022-11-28T03:04:17.767Z,97.16
2022-11-28T03:05:17.761Z,97.16
2022-11-28T03:06:17.749Z,97.05
2022-11-28T03:07:17.775Z,96.64
2022-11-28T03:08:17.704Z,96.44
2022-11-28T03:09:17.753Z,96.33
2022-11-28T03:10:17.707Z,96.74
2022-11-28T03:11:17.766Z,96.53
2022-11-28T03:12:17.671Z,96.53
2022-11-28T03:13:17.654Z,96.74
2022-11-28T03:14:17.648Z,96.95
2022-11-28T03:15:17.644Z,97.05
2022-11-28T03:16:17.696Z,96.95
2022-11-28T03:17:17.605Z,96.95
2022-11-28T03:18:17.584Z,96.84
2022-11-28T03:19:17.602Z,96.74
2022-11-28T03:20:17.593Z,96.74
2022-11-28T03:21:17.579Z,96.44
2022-11-28T03:22:17.559Z,96.53
2022-11-28T03:23:17.554Z,96.64
2022-11-28T03:24:17.514Z,96.84
2022-11-28T03:25:17.524Z,97.05
2022-11-28T03:26:17.528Z,97.05
2022-11-28T03:27:17.516Z,97.26
2022-11-28T03:28:17.517Z,97.26
2022-11-28T03:29:17.495Z,96.84
2022-11-28T03:30:17.453Z,96.84
2022-11-28T03:31:17.486Z,96.74
2022-11-28T03:32:17.448Z,96.84
2022-11-28T03:33:17.425Z,96.53
2022-11-28T03:34:17.435Z,96.23
2022-11-28T03:35:17.454Z,96.33
2022-11-28T03:36:23.903Z,96.53
2022-11-28T03:37:17.399Z,96.53
2022-11-28T03:38:17.359Z,96.33
2022-11-28T03:39:17.375Z,96.12
2022-11-28T03:40:17.370Z,96.12
2022-11-28T03:41:17.353Z,96.23
2022-11-28T03:42:17.385Z,96.44
2022-11-28T03:43:17.332Z,96.12
2022-11-28T03:44:17.301Z,96.23
2022-11-28T03:45:17.337Z,96.33
2022-11-28T03:46:17.331Z,96.23
2022-11-28T03:47:17.287Z,96.53
2022-11-28T03:48:17.270Z,96.53
2022-11-28T03:49:17.277Z,96.64
2022-11-28T03:50:17.258Z,96.64
2022-11-28T03:51:17.244Z,96.74
2022-11-28T03:52:17.237Z,96.74
2022-11-28T03:53:17.205Z,96.84
2022-11-28T03:54:17.199Z,96.84
2022-11-28T03:55:17.219Z,96.74
2022-11-28T03:56:17.164Z,96.74
2022-11-28T03:57:17.188Z,96.33
2022-11-28T03:58:17.153Z,96.23
2022-11-28T03:59:17.150Z,96.23
2022-11-28T04:00:17.129Z,96.44
2022-11-28T04:01:17.232Z,96.44
2022-11-28T04:02:17.120Z,96.64
2022-11-28T04:03:17.180Z,96.53
2022-11-28T04:04:17.096Z,96.33
2022-11-28T04:05:17.082Z,96.33
2022-11-28T04:06:17.083Z,96.53
2022-11-28T04:07:17.113Z,96.53
2022-11-28T04:08:17.310Z,96.64
2022-11-28T04:09:17.012Z,96.53
2022-11-28T04:10:17.012Z,96.23
2022-11-28T04:11:16.988Z,96.23
2022-11-28T04:12:16.996Z,96.33
2022-11-28T04:13:17.050Z,96.53
2022-11-28T04:14:16.961Z,95.92
2022-11-28T04:15:16.973Z,95.61
2022-11-28T04:17:27.618Z,96.12
2022-11-28T04:18:28.650Z,95.81
2022-11-28T04:19:28.587Z,95.92
2022-11-28T04:20:28.584Z,96.02
2022-11-28T04:21:28.566Z,95.92
2022-11-28T04:22:28.582Z,95.81
2022-11-28T04:23:28.572Z,95.50
2022-11-28T04:24:28.542Z,95.30
2022-11-28T04:25:28.558Z,95.09
2022-11-28T04:26:28.516Z,95.30
2022-11-28T04:27:28.527Z,95.50
2022-11-28T04:28:28.514Z,95.61
2022-11-28T04:29:28.479Z,95.50
2022-11-28T04:30:28.503Z,95.71
2022-11-28T04:31:28.513Z,96.02
2022-11-28T04:32:28.488Z,95.71
2022-11-28T04:33:28.436Z,95.71
2022-11-28T04:34:28.450Z,95.50
2022-11-28T04:35:28.437Z,95.30
2022-11-28T04:36:34.954Z,95.40
2022-11-28T04:37:28.409Z,95.56
2022-11-28T04:38:28.397Z,95.77
2022-11-28T04:39:28.393Z,95.87
2022-11-28T04:40:28.377Z,95.67
2022-11-28T04:41:28.361Z,95.56
2022-11-28T04:42:28.367Z,95.40
2022-11-28T04:43:28.437Z,95.30
2022-11-28T04:44:28.336Z,95.09
2022-11-28T04:45:28.378Z,95.40
2022-11-28T04:46:28.299Z,95.30
2022-11-28T04:47:28.285Z,95.40
2022-11-28T04:48:32.832Z,95.50
2022-11-28T04:49:28.293Z,95.61
2022-11-28T04:50:28.274Z,95.30
2022-11-28T04:51:28.252Z,95.20
2022-11-28T04:52:28.237Z,95.20
2022-11-28T04:53:28.240Z,95.09
2022-11-28T04:54:28.233Z,95.20
2022-11-28T04:55:28.218Z,95.09
2022-11-28T04:56:28.207Z,95.09
2022-11-28T04:57:28.188Z,94.47
2022-11-28T04:58:28.191Z,94.62
2022-11-28T04:59:28.175Z,94.52
2022-11-28T05:00:28.240Z,94.27
2022-11-28T05:01:28.213Z,94.27
2022-11-28T05:02:28.206Z,94.21
2022-11-28T05:03:28.106Z,94.10
2022-11-28T05:04:28.110Z,93.90
2022-11-28T05:05:28.108Z,94.00
2022-11-28T05:06:28.102Z,93.69
2022-11-28T05:07:28.215Z,93.79
2022-11-28T05:08:28.084Z,94.00
2022-11-28T05:09:28.055Z,93.79
2022-11-28T05:10:28.031Z,93.79
2022-11-28T05:11:28.033Z,93.90
2022-11-28T05:12:28.012Z,93.69
2022-11-28T05:13:28.010Z,93.90
2022-11-28T05:14:28.100Z,93.38
2022-11-28T05:15:27.971Z,93.28
2022-11-28T05:16:34.559Z,93.18
2022-11-28T05:17:28.001Z,93.07
2022-11-28T05:18:27.969Z,92.86
2022-11-28T05:19:27.927Z,93.07
2022-11-28T05:20:27.950Z,92.97
2022-11-28T05:21:27.907Z,92.97
2022-11-28T05:22:27.934Z,92.76
2022-11-28T05:23:27.896Z,93.07
2022-11-28T05:24:32.097Z,93.18
2022-11-28T05:25:27.870Z,93.07
2022-11-28T05:26:27.882Z,93.07
2022-11-28T05:27:27.862Z,93.18
2022-11-28T05:28:27.834Z,93.07
2022-11-28T05:29:27.814Z,93.07
2022-11-28T05:30:27.852Z,93.18
2022-11-28T05:31:27.840Z,93.28
2022-11-28T05:32:27.821Z,93.07
2022-11-28T05:33:28.577Z,93.18
2022-11-28T05:34:27.798Z,93.07
2022-11-28T05:35:27.771Z,93.07
2022-11-28T05:36:34.773Z,92.76
2022-11-28T05:37:27.769Z,92.76
2022-11-28T05:38:27.750Z,92.76
2022-11-28T05:39:27.731Z,92.97
2022-11-28T05:40:27.708Z,92.55
2022-11-28T05:41:27.700Z,92.35
2022-11-28T05:42:27.708Z,92.46
2022-11-28T05:43:27.677Z,92.46
2022-11-28T05:44:27.660Z,92.25
2022-11-28T05:45:27.778Z,92.31
2022-11-28T05:46:27.665Z,92.21
2022-11-28T05:47:27.636Z,91.58
2022-11-28T05:48:27.646Z,91.89
2022-11-28T05:49:27.612Z,92.10
2022-11-28T05:50:27.590Z,92.21
2022-11-28T05:51:27.607Z,91.69
2022-11-28T05:52:27.603Z,91.58
2022-11-28T05:53:27.578Z,91.58
2022-11-28T05:54:27.568Z,91.48
2022-11-28T05:55:27.550Z,91.17
2022-11-28T05:56:27.534Z,91.17
2022-11-28T05:57:27.508Z,91.17
2022-11-28T05:58:27.522Z,91.17
2022-11-28T05:59:27.483Z,91.07
2022-11-28T06:00:27.529Z,91.17
2022-11-28T06:01:27.493Z,91.28
2022-11-28T06:02:27.522Z,91.38
2022-11-28T06:03:27.488Z,91.07
2022-11-28T06:04:27.467Z,90.97
2022-11-28T06:05:42.252Z,90.97
2022-11-28T06:06:27.443Z,91.17
2022-11-28T06:07:28.265Z,91.48
2022-11-28T06:08:27.401Z,91.07
2022-11-28T06:09:28.452Z,90.86
2022-11-28T06:10:27.376Z,90.76
2022-11-28T06:11:27.378Z,90.97
2022-11-28T06:12:27.358Z,90.86
2022-11-28T06:13:27.367Z,91.07
2022-11-28T06:14:27.324Z,90.97
2022-11-28T06:15:27.344Z,91.28
2022-11-28T06:16:27.413Z,91.58
2022-11-28T06:17:27.316Z,91.79
2022-11-28T06:18:27.307Z,92.10
2022-11-28T06:19:27.274Z,92.00
2022-11-28T06:20:27.497Z,91.89
2022-11-28T06:21:27.260Z,92.10
2022-11-28T06:22:27.253Z,92.41
2022-11-28T06:23:27.277Z,92.41
2022-11-28T06:24:27.217Z,92.51
2022-11-28T06:25:27.206Z,92.82
2022-11-28T06:26:34.731Z,93.18
2022-11-28T06:27:27.214Z,93.59
2022-11-28T06:28:27.183Z,94.00
2022-11-28T06:29:27.181Z,94.00
2022-11-28T06:30:27.148Z,94.00
2022-11-28T06:31:27.247Z,94.21
2022-11-28T06:32:27.138Z,94.21
2022-11-28T06:33:27.136Z,94.62
2022-11-28T06:34:27.119Z,94.82
2022-11-28T06:35:27.133Z,95.03
2022-11-28T06:36:27.093Z,95.24
2022-11-28T06:37:27.123Z,95.24
2022-11-28T06:38:27.053Z,95.24
2022-11-28T06:39:27.074Z,95.45
2022-11-28T06:40:27.070Z,95.55
2022-11-28T06:41:27.037Z,95.86
2022-11-28T06:42:27.093Z,96.06
2022-11-28T06:43:27.027Z,96.27
2022-11-28T06:44:27.040Z,96.37
2022-11-28T06:45:27.061Z,96.69
2022-11-28T06:46:33.614Z,96.89
2022-11-28T06:47:26.998Z,96.79
2022-11-28T06:48:26.953Z,96.69
2022-11-28T06:49:26.943Z,96.73
2022-11-28T06:50:26.965Z,96.94
2022-11-28T06:51:26.936Z,97.20
2022-11-28T06:52:26.921Z,97.34
2022-11-28T06:53:31.315Z,97.55
2022-11-28T06:54:26.898Z,97.86
2022-11-28T06:55:26.903Z,98.07
2022-11-28T06:56:27.764Z,98.18
2022-11-28T06:57:26.878Z,98.28
2022-11-28T06:58:30.522Z,98.38
2022-11-28T06:59:33.139Z,98.58
2022-11-28T07:00:27.800Z,98.90
2022-11-28T07:01:27.215Z,99.21
2022-11-28T07:02:26.880Z,99.21
2022-11-28T07:03:26.788Z,99.21
2022-11-28T07:04:27.796Z,99.10
2022-11-28T07:05:26.790Z,98.63
2022-11-28T07:06:26.994Z,99.05
2022-11-28T07:07:27.299Z,99.35
2022-11-28T07:08:26.817Z,99.56
2022-11-28T07:09:26.807Z,99.72
2022-11-28T07:10:26.747Z,99.93
2022-11-28T07:11:27.246Z,99.93
2022-11-28T07:12:27.290Z,99.99
2022-11-28T07:13:26.695Z,99.93
2022-11-28T07:14:26.683Z,99.99
2022-11-28T07:15:27.291Z,99.99
2022-11-28T07:16:26.761Z,99.99
2022-11-28T07:17:26.725Z,99.93
2022-11-28T07:18:26.671Z,99.62
2022-11-28T07:19:26.648Z,99.82
2022-11-28T07:20:26.854Z,99.52
2022-11-28T07:21:26.593Z,99.72
2022-11-28T07:22:27.562Z,99.72
2022-11-28T07:23:26.597Z,99.82
2022-11-28T07:24:26.551Z,99.62
2022-11-28T07:25:26.586Z,99.72
2022-11-28T07:26:26.568Z,99.93
2022-11-28T07:27:26.547Z,99.93
2022-11-28T07:28:26.600Z,99.99
2022-11-28T07:29:27.293Z,99.99
2022-11-28T07:30:28.328Z,99.93
2022-11-28T07:31:26.569Z,99.93
2022-11-28T07:32:26.491Z,99.99
2022-11-28T07:33:26.468Z,99.93
2022-11-28T07:34:26.478Z,99.99
2022-11-28T07:35:26.470Z,99.99
2022-11-28T07:36:26.490Z,99.93
2022-11-28T07:37:27.103Z,99.99
2022-11-28T07:38:26.406Z,99.99
2022-11-28T07:39:26.421Z,99.93
2022-11-28T07:40:26.409Z,99.72
2022-11-28T07:41:27.221Z,99.82
2022-11-28T07:42:26.390Z,99.93
2022-11-28T07:43:26.349Z,99.99
2022-11-28T07:44:26.363Z,99.99
2022-11-28T07:45:36.984Z,99.99
2022-11-28T07:46:26.372Z,99.99
2022-11-28T07:47:26.337Z,99.72
2022-11-28T07:48:26.610Z,99.72
2022-11-28T07:49:26.335Z,99.72
2022-11-28T07:50:26.408Z,99.41
2022-11-28T07:51:26.527Z,99.62
2022-11-28T07:52:26.283Z,99.62
2022-11-28T07:53:32.806Z,99.82
2022-11-28T07:54:28.775Z,99.99
2022-11-28T07:55:26.242Z,99.99
2022-11-28T07:56:31.927Z,99.93
2022-11-28T07:57:26.208Z,99.99
2022-11-28T07:58:26.395Z,99.99
2022-11-28T07:59:26.175Z,99.99
2022-11-28T08:00:26.272Z,99.99
2022-11-28T08:01:26.362Z,99.99
2022-11-28T08:02:26.256Z,99.99
2022-11-28T08:03:26.141Z,99.99
2022-11-28T08:04:26.304Z,99.99
2022-11-28T08:05:26.122Z,99.99
2022-11-28T08:06:26.130Z,99.99
2022-11-28T08:07:26.160Z,99.99
2022-11-28T08:08:26.805Z,99.99
2022-11-28T08:09:26.082Z,99.99
2022-11-28T08:10:26.164Z,99.99
2022-11-28T08:11:26.088Z,99.99
2022-11-28T08:12:26.804Z,99.99
2022-11-28T08:13:26.721Z,99.99
2022-11-28T08:14:26.049Z,99.99
2022-11-28T08:15:28.897Z,99.82
2022-11-28T08:16:26.033Z,99.72
2022-11-28T08:17:25.998Z,99.82
2022-11-28T08:18:26.003Z,99.93
2022-11-28T08:19:28.321Z,99.93
2022-11-28T08:20:26.005Z,99.82
2022-11-28T08:21:25.944Z,99.93
2022-11-28T08:22:25.924Z,99.99
2022-11-28T08:23:26.810Z,99.99
2022-11-28T08:24:28.689Z,99.99
2022-11-28T08:25:25.905Z,99.99
2022-11-28T08:26:29.043Z,99.99
2022-11-28T08:27:25.877Z,99.99
2022-11-28T08:28:25.898Z,99.99
2022-11-28T08:29:25.909Z,99.99
2022-11-28T08:30:25.861Z,99.88
2022-11-28T08:31:25.841Z,99.78
2022-11-28T08:32:25.839Z,99.68
2022-11-28T08:33:25.818Z,99.78
2022-11-28T08:34:25.868Z,99.78
2022-11-28T08:35:25.857Z,99.68
2022-11-28T08:36:28.298Z,99.26
2022-11-28T08:37:25.772Z,98.96
2022-11-28T08:38:25.787Z,98.96
2022-11-28T08:39:25.775Z,98.96
2022-11-28T08:40:25.838Z,99.16
2022-11-28T08:41:25.720Z,99.16
2022-11-28T08:42:25.967Z,99.26
2022-11-28T08:43:25.722Z,99.06
2022-11-28T08:44:26.324Z,99.06
2022-11-28T08:45:25.684Z,98.91
2022-11-28T08:46:33.981Z,98.91
2022-11-28T08:47:25.723Z,99.11
2022-11-28T08:48:25.661Z,98.91
2022-11-28T08:49:25.621Z,99.01
2022-11-28T08:50:25.670Z,99.01
2022-11-28T08:51:25.648Z,98.70
2022-11-28T08:52:25.620Z,98.70
2022-11-28T08:53:25.631Z,98.80
2022-11-28T08:54:25.623Z,98.91
2022-11-28T08:56:25.585Z,98.50
2022-11-28T08:57:25.786Z,98.60
2022-11-28T08:58:25.564Z,98.70
2022-11-28T08:59:25.525Z,98.70
2022-11-28T09:00:25.536Z,99.01
2022-11-28T09:01:25.613Z,99.22
2022-11-28T09:02:26.377Z,99.22
2022-11-28T09:03:25.525Z,99.43
2022-11-28T09:04:25.583Z,99.22
2022-11-28T09:05:25.675Z,99.22
2022-11-28T09:06:25.474Z,99.11
2022-11-28T09:07:25.516Z,98.70
2022-11-28T09:08:25.732Z,98.70
2022-11-28T09:09:32.636Z,98.80
2022-11-28T09:10:26.362Z,98.97
2022-11-28T09:11:25.587Z,99.17
2022-11-28T09:12:26.343Z,99.38
2022-11-28T09:13:25.392Z,99.07
2022-11-28T09:14:25.362Z,98.97
2022-11-28T09:15:27.072Z,99.07
2022-11-28T09:16:25.422Z,98.86
2022-11-28T09:17:25.538Z,98.45
2022-11-28T09:18:25.337Z,98.66
2022-11-28T09:19:25.338Z,98.71
2022-11-28T09:20:25.346Z,98.41
2022-11-28T09:21:25.329Z,98.41
2022-11-28T09:22:25.876Z,98.41
2022-11-28T09:23:25.279Z,98.50
2022-11-28T09:24:25.295Z,98.20
2022-11-28T09:25:25.245Z,98.30
2022-11-28T09:26:25.250Z,98.20
2022-11-28T09:27:25.876Z,98.10
2022-11-28T09:28:25.198Z,97.78
2022-11-28T09:29:25.864Z,97.78
2022-11-28T09:30:26.631Z,97.89
2022-11-28T09:31:34.764Z,97.48
2022-11-28T09:32:25.893Z,97.38
2022-11-28T09:33:26.597Z,97.38
2022-11-28T09:34:26.465Z,97.58
2022-11-28T09:35:40.897Z,97.78
2022-11-28T09:36:27.644Z,97.99
2022-11-28T09:37:26.353Z,97.89
2022-11-28T09:38:28.183Z,97.78
2022-11-28T09:39:26.610Z,98.10
2022-11-28T09:40:25.310Z,98.10
2022-11-28T09:41:27.095Z,98.10
2022-11-28T09:42:26.120Z,98.15
2022-11-28T09:43:26.637Z,98.15
2022-11-28T09:44:25.053Z,97.74
2022-11-28T09:45:29.945Z,97.38
2022-11-28T09:46:36.779Z,97.53
2022-11-28T09:47:47.845Z,97.33
2022-11-28T09:48:26.541Z,97.02
2022-11-28T09:49:40.363Z,97.02
2022-11-28T09:50:25.188Z,97.33
2022-11-28T09:51:25.914Z,96.92
2022-11-28T09:52:46.300Z,97.23
2022-11-28T09:53:34.485Z,97.43
2022-11-28T09:54:27.483Z,97.18
2022-11-28T09:55:25.879Z,97.39
2022-11-28T09:56:27.853Z,97.08
2022-11-28T09:57:26.065Z,97.18
2022-11-28T09:58:25.780Z,97.08
2022-11-28T09:59:26.352Z,96.56
2022-11-28T10:00:26.154Z,96.46
2022-11-28T10:01:34.872Z,96.77
2022-11-28T10:02:26.919Z,96.25
2022-11-28T10:03:27.029Z,96.25
2022-11-28T10:04:25.457Z,96.05
2022-11-28T10:05:28.449Z,96.25
2022-11-28T10:06:24.990Z,96.25
2022-11-28T10:07:34.931Z,96.05
2022-11-28T10:08:26.824Z,96.25
2022-11-28T10:09:26.038Z,95.84
2022-11-28T10:10:29.133Z,96.00
2022-11-28T10:11:29.603Z,95.80
2022-11-28T10:12:26.071Z,95.49
2022-11-28T10:13:27.410Z,95.49
2022-11-28T10:14:26.683Z,95.23
2022-11-28T10:15:25.502Z,95.33
2022-11-28T10:16:24.740Z,95.43
2022-11-28T10:17:25.622Z,95.02
2022-11-28T10:18:25.800Z,94.92
2022-11-28T10:19:52.742Z,95.74
2022-11-28T10:20:27.814Z,95.74
2022-11-28T10:21:25.602Z,95.84
2022-11-28T10:22:26.384Z,95.74
2022-11-28T10:23:25.645Z,95.49
2022-11-28T10:24:27.755Z,95.49
2022-11-28T10:25:28.298Z,95.39
2022-11-28T10:26:33.087Z,95.39
2022-11-28T10:27:27.042Z,95.49
2022-11-28T10:28:30.208Z,95.39
2022-11-28T10:29:25.422Z,94.77
2022-11-28T10:30:30.651Z,94.81
2022-11-28T10:31:24.535Z,95.12
2022-11-28T10:32:25.442Z,94.92
2022-11-28T10:33:25.239Z,95.02
2022-11-28T10:34:24.475Z,95.23
2022-11-28T10:35:28.344Z,95.74
2022-11-28T10:36:24.457Z,95.74
2022-11-28T10:37:24.440Z,95.39
2022-11-28T10:38:24.461Z,95.49
2022-11-28T10:39:24.424Z,95.39
2022-11-28T10:40:24.441Z,95.39
2022-11-28T10:41:24.955Z,95.49
2022-11-28T10:42:24.451Z,95.39
2022-11-28T10:43:24.376Z,95.18
2022-11-28T10:44:24.405Z,95.18
2022-11-28T10:45:24.358Z,95.18
2022-11-28T10:46:24.387Z,95.28
2022-11-28T10:47:24.331Z,94.77
2022-11-28T10:48:40.840Z,94.77
2022-11-28T10:49:24.294Z,95.28
2022-11-28T10:50:26.935Z,95.59
2022-11-28T10:51:24.353Z,95.49
2022-11-28T10:52:24.284Z,95.49
2022-11-28T10:53:24.251Z,95.49
2022-11-28T10:54:24.285Z,95.49
2022-11-28T10:55:24.230Z,95.59
2022-11-28T10:56:24.224Z,95.90
2022-11-28T10:57:24.200Z,95.75
2022-11-28T10:58:24.183Z,95.49
2022-11-28T10:59:24.194Z,95.39
2022-11-28T11:00:24.171Z,94.98
2022-11-28T11:01:24.229Z,95.28
2022-11-28T11:02:24.183Z,95.59
2022-11-28T11:03:24.145Z,95.59
2022-11-28T11:04:24.309Z,95.90
2022-11-28T11:05:24.106Z,96.00
2022-11-28T11:06:24.290Z,96.11
2022-11-28T11:07:29.360Z,96.27
2022-11-28T11:08:24.144Z,96.06
2022-11-28T11:09:24.092Z,95.96
2022-11-28T11:10:24.286Z,96.17
2022-11-28T11:11:24.099Z,95.75
2022-11-28T11:12:24.043Z,95.45
2022-11-28T11:13:24.091Z,95.86
2022-11-28T11:14:24.020Z,95.75
2022-11-28T11:15:24.003Z,96.02
2022-11-28T11:16:30.578Z,96.22
2022-11-28T11:17:23.984Z,96.33
2022-11-28T11:18:23.996Z,96.53
2022-11-28T11:19:23.995Z,96.64
2022-11-28T11:20:23.957Z,96.73
2022-11-28T11:21:24.161Z,96.64
2022-11-28T11:22:24.114Z,96.84
2022-11-28T11:23:23.994Z,96.53
2022-11-28T11:24:23.935Z,96.43
2022-11-28T11:25:23.960Z,96.33
2022-11-28T11:26:23.981Z,96.43
2022-11-28T11:27:23.886Z,96.84
2022-11-28T11:28:23.875Z,97.15
2022-11-28T11:29:23.871Z,97.36
2022-11-28T11:30:23.861Z,97.05
2022-11-28T11:31:23.910Z,96.84
2022-11-28T11:32:23.807Z,96.84
2022-11-28T11:33:23.802Z,96.84
2022-11-28T11:34:23.836Z,97.15
2022-11-28T11:35:23.782Z,97.45
2022-11-28T11:36:23.807Z,97.45
2022-11-28T11:37:23.802Z,97.56
2022-11-28T11:38:23.770Z,97.45
2022-11-28T11:39:23.739Z,97.77
2022-11-28T11:40:23.737Z,97.87
2022-11-28T11:41:23.748Z,97.97
2022-11-28T11:42:23.732Z,97.66
2022-11-28T11:43:23.798Z,97.66
2022-11-28T11:44:23.706Z,97.66
2022-11-28T11:45:23.702Z,98.07
2022-11-28T11:46:23.789Z,98.03
2022-11-28T11:47:23.679Z,97.52
2022-11-28T11:48:23.673Z,97.62
2022-11-28T11:49:23.679Z,97.92
2022-11-28T11:50:23.622Z,97.82
2022-11-28T11:51:23.600Z,98.03
2022-11-28T11:52:23.598Z,97.62
2022-11-28T11:53:23.768Z,97.00
2022-11-28T11:54:23.593Z,97.25
2022-11-28T11:55:23.556Z,97.56
2022-11-28T11:56:23.631Z,97.87
2022-11-28T11:57:33.010Z,97.77
2022-11-28T11:58:23.549Z,97.92
2022-11-28T11:59:23.546Z,98.03
2022-11-28T12:00:23.526Z,98.24
2022-11-28T12:01:23.490Z,98.24
2022-11-28T12:02:23.613Z,97.92
2022-11-28T12:03:23.774Z,97.66
2022-11-28T12:04:44.370Z,97.87
2022-11-28T12:05:23.470Z,98.07
2022-11-28T12:06:23.453Z,98.49
2022-11-28T12:07:24.059Z,98.90
2022-11-28T12:08:23.430Z,99.10
2022-11-28T12:09:23.400Z,99.21
2022-11-28T12:10:23.390Z,99.00
2022-11-28T12:11:23.413Z,98.69
2022-11-28T12:12:23.396Z,99.00
2022-11-28T12:13:23.352Z,98.90
2022-11-28T12:14:23.420Z,98.79
2022-11-28T12:15:23.371Z,99.00
2022-11-28T12:16:23.376Z,98.90
2022-11-28T12:17:47.733Z,99.00
2022-11-28T12:29:23.341Z,99.10
2022-11-28T12:29:28.165Z,99.26
2022-11-28T12:30:28.149Z,99.47
2022-11-28T12:31:28.224Z,99.47
2022-11-28T12:32:28.140Z,99.26
2022-11-28T12:33:28.966Z,99.37
2022-11-28T12:34:28.106Z,99.37
2022-11-28T12:35:28.110Z,99.47
2022-11-28T12:36:28.086Z,99.05
2022-11-28T12:37:42.100Z,98.96
2022-11-28T12:38:28.079Z,99.37
2022-11-28T12:39:28.060Z,99.77
2022-11-28T12:40:28.038Z,99.77
2022-11-28T12:41:32.436Z,99.77
2022-11-28T12:42:28.037Z,99.88
2022-11-28T12:43:28.038Z,99.99
2022-11-28T12:44:28.021Z,99.99
2022-11-28T12:45:27.991Z,99.99
2022-11-28T12:46:28.286Z,99.99
2022-11-28T12:47:27.966Z,99.99
2022-11-28T12:48:27.949Z,99.99
2022-11-28T12:49:28.142Z,99.99
2022-11-28T12:50:27.919Z,99.99
2022-11-28T12:51:27.908Z,99.99
2022-11-28T12:52:27.935Z,99.99
2022-11-28T12:53:27.903Z,99.99
2022-11-28T12:54:28.802Z,99.99
2022-11-28T12:55:27.849Z,99.99
2022-11-28T12:56:28.112Z,99.99
2022-11-28T12:57:27.848Z,99.99
2022-11-28T12:58:27.838Z,99.99
2022-11-28T12:59:27.871Z,99.99
2022-11-28T13:00:27.824Z,99.99
2022-11-28T13:01:27.922Z,99.99
2022-11-28T13:02:28.066Z,99.99
2022-11-28T13:03:27.843Z,99.99
2022-11-28T13:04:27.782Z,99.99